sensor_id;sensor_type;location;lat;lon;timestamp;P1;durP1;ratioP1;P2;durP2;ratioP2
27303;SDS011;14791;52.392;13.092;2023-01-06T00:00:29;2.20;;;2.10;;
27303;SDS011;14791;52.392;13.092;2023-01-06T00:02:58;2.23;;;2.03;;
27303;SDS011;14791;52.392;13.092;2023-01-06T00:05:27;1.80;;;1.70;;
27303;SDS011;14791;52.392;13.092;2023-01-06T00:07:56;1.50;;;1.50;;
27303;SDS011;14791;52.392;13.092;2023-01-06T00:10:25;1.13;;;1.13;;
27303;SDS011;14791;52.392;13.092;2023-01-06T00:12:54;1.57;;;1.47;;
27303;SDS011;14791;52.392;13.092;2023-01-06T00:15:23;1.70;;;1.60;;
27303;SDS011;14791;52.392;13.092;2023-01-06T00:17:52;1.60;;;1.60;;
27303;SDS011;14791;52.392;13.092;2023-01-06T00:20:21;1.70;;;1.47;;
27303;SDS011;14791;52.392;13.092;2023-01-06T00:22:49;1.80;;;1.53;;
27303;SDS011;14791;52.392;13.092;2023-01-06T00:25:18;1.73;;;1.70;;
27303;SDS011;14791;52.392;13.092;2023-01-06T00:27:47;2.77;;;1.60;;
27303;SDS011;14791;52.392;13.092;2023-01-06T00:30:16;1.27;;;1.27;;
27303;SDS011;14791;52.392;13.092;2023-01-06T00:32:45;1.70;;;1.37;;
27303;SDS011;14791;52.392;13.092;2023-01-06T00:35:14;2.43;;;1.73;;
27303;SDS011;14791;52.392;13.092;2023-01-06T00:37:43;1.53;;;1.20;;
27303;SDS011;14791;52.392;13.092;2023-01-06T00:40:12;1.00;;;1.00;;
27303;SDS011;14791;52.392;13.092;2023-01-06T00:42:41;1.27;;;1.23;;
27303;SDS011;14791;52.392;13.092;2023-01-06T00:45:10;1.57;;;1.30;;
27303;SDS011;14791;52.392;13.092;2023-01-06T00:47:39;1.40;;;1.30;;
27303;SDS011;14791;52.392;13.092;2023-01-06T00:50:08;2.50;;;1.50;;
27303;SDS011;14791;52.392;13.092;2023-01-06T00:52:38;1.10;;;1.10;;
27303;SDS011;14791;52.392;13.092;2023-01-06T00:55:07;1.27;;;1.17;;
27303;SDS011;14791;52.392;13.092;2023-01-06T00:57:36;1.33;;;1.20;;
27303;SDS011;14791;52.392;13.092;2023-01-06T01:00:07;0.90;;;0.90;;
27303;SDS011;14791;52.392;13.092;2023-01-06T01:02:36;1.23;;;0.97;;
27303;SDS011;14791;52.392;13.092;2023-01-06T01:05:05;1.43;;;1.13;;
27303;SDS011;14791;52.392;13.092;2023-01-06T01:07:35;0.90;;;0.90;;
27303;SDS011;14791;52.392;13.092;2023-01-06T01:10:04;1.00;;;1.00;;
27303;SDS011;14791;52.392;13.092;2023-01-06T01:12:34;2.17;;;1.27;;
27303;SDS011;14791;52.392;13.092;2023-01-06T01:15:04;1.10;;;1.10;;
27303;SDS011;14791;52.392;13.092;2023-01-06T01:17:35;1.70;;;1.33;;
27303;SDS011;14791;52.392;13.092;2023-01-06T01:20:04;0.97;;;0.90;;
27303;SDS011;14791;52.392;13.092;2023-01-06T01:22:33;1.13;;;1.00;;
27303;SDS011;14791;52.392;13.092;2023-01-06T01:25:02;1.13;;;1.03;;
27303;SDS011;14791;52.392;13.092;2023-01-06T01:27:31;1.70;;;0.93;;
27303;SDS011;14791;52.392;13.092;2023-01-06T01:30:00;0.80;;;0.80;;
27303;SDS011;14791;52.392;13.092;2023-01-06T01:32:29;1.00;;;1.00;;
27303;SDS011;14791;52.392;13.092;2023-01-06T01:34:58;1.03;;;0.83;;
27303;SDS011;14791;52.392;13.092;2023-01-06T01:37:26;0.80;;;0.80;;
27303;SDS011;14791;52.392;13.092;2023-01-06T01:39:57;0.90;;;0.90;;
27303;SDS011;14791;52.392;13.092;2023-01-06T01:42:25;1.20;;;1.20;;
27303;SDS011;14791;52.392;13.092;2023-01-06T01:45:02;1.03;;;1.03;;
27303;SDS011;14791;52.392;13.092;2023-01-06T01:47:37;2.00;;;1.00;;
27303;SDS011;14791;52.392;13.092;2023-01-06T01:52:52;0.93;;;0.90;;
27303;SDS011;14791;52.392;13.092;2023-01-06T01:55:23;0.80;;;0.80;;
27303;SDS011;14791;52.392;13.092;2023-01-06T01:57:58;0.80;;;0.80;;
27303;SDS011;14791;52.392;13.092;2023-01-06T02:00:35;0.90;;;0.90;;
27303;SDS011;14791;52.392;13.092;2023-01-06T02:03:05;0.60;;;0.60;;
27303;SDS011;14791;52.392;13.092;2023-01-06T02:05:36;1.10;;;1.10;;
27303;SDS011;14791;52.392;13.092;2023-01-06T02:08:22;0.60;;;0.60;;
27303;SDS011;14791;52.392;13.092;2023-01-06T02:10:49;1.50;;;1.00;;
27303;SDS011;14791;52.392;13.092;2023-01-06T02:13:18;0.70;;;0.70;;
27303;SDS011;14791;52.392;13.092;2023-01-06T02:15:47;0.97;;;0.87;;
27303;SDS011;14791;52.392;13.092;2023-01-06T02:18:28;2.07;;;0.80;;
27303;SDS011;14791;52.392;13.092;2023-01-06T02:23:55;0.70;;;0.70;;
27303;SDS011;14791;52.392;13.092;2023-01-06T02:29:49;0.80;;;0.80;;
27303;SDS011;14791;52.392;13.092;2023-01-06T02:32:47;0.93;;;0.77;;
27303;SDS011;14791;52.392;13.092;2023-01-06T02:35:28;1.10;;;1.10;;
27303;SDS011;14791;52.392;13.092;2023-01-06T02:40:40;1.03;;;1.00;;
27303;SDS011;14791;52.392;13.092;2023-01-06T02:48:40;0.87;;;0.70;;
27303;SDS011;14791;52.392;13.092;2023-01-06T02:54:15;1.30;;;0.70;;
27303;SDS011;14791;52.392;13.092;2023-01-06T02:56:46;1.20;;;1.10;;
27303;SDS011;14791;52.392;13.092;2023-01-06T02:59:24;1.80;;;0.90;;
27303;SDS011;14791;52.392;13.092;2023-01-06T03:01:52;0.93;;;0.87;;
27303;SDS011;14791;52.392;13.092;2023-01-06T03:04:30;1.60;;;0.80;;
27303;SDS011;14791;52.392;13.092;2023-01-06T03:06:55;2.17;;;0.97;;
27303;SDS011;14791;52.392;13.092;2023-01-06T03:09:33;1.77;;;1.03;;
27303;SDS011;14791;52.392;13.092;2023-01-06T03:12:06;1.03;;;0.90;;
27303;SDS011;14791;52.392;13.092;2023-01-06T03:14:39;0.80;;;0.80;;
27303;SDS011;14791;52.392;13.092;2023-01-06T03:17:10;0.90;;;0.90;;
27303;SDS011;14791;52.392;13.092;2023-01-06T03:19:40;0.80;;;0.80;;
27303;SDS011;14791;52.392;13.092;2023-01-06T03:22:10;0.60;;;0.60;;
27303;SDS011;14791;52.392;13.092;2023-01-06T03:24:41;1.10;;;1.10;;
27303;SDS011;14791;52.392;13.092;2023-01-06T03:27:12;0.87;;;0.87;;
27303;SDS011;14791;52.392;13.092;2023-01-06T03:29:44;0.70;;;0.70;;
27303;SDS011;14791;52.392;13.092;2023-01-06T03:32:21;0.83;;;0.83;;
27303;SDS011;14791;52.392;13.092;2023-01-06T03:40:49;0.70;;;0.70;;
27303;SDS011;14791;52.392;13.092;2023-01-06T03:43:33;1.17;;;1.07;;
27303;SDS011;14791;52.392;13.092;2023-01-06T03:46:05;2.53;;;0.70;;
27303;SDS011;14791;52.392;13.092;2023-01-06T03:57:15;1.00;;;1.00;;
27303;SDS011;14791;52.392;13.092;2023-01-06T04:00:18;1.87;;;1.03;;
27303;SDS011;14791;52.392;13.092;2023-01-06T04:02:51;1.37;;;1.27;;
27303;SDS011;14791;52.392;13.092;2023-01-06T04:05:23;1.20;;;1.10;;
27303;SDS011;14791;52.392;13.092;2023-01-06T04:07:55;1.13;;;1.13;;
27303;SDS011;14791;52.392;13.092;2023-01-06T04:10:24;1.57;;;1.47;;
27303;SDS011;14791;52.392;13.092;2023-01-06T04:12:55;2.20;;;1.70;;
27303;SDS011;14791;52.392;13.092;2023-01-06T04:15:25;1.70;;;1.60;;
27303;SDS011;14791;52.392;13.092;2023-01-06T04:18:00;1.40;;;1.40;;
27303;SDS011;14791;52.392;13.092;2023-01-06T04:20:30;1.53;;;1.47;;
27303;SDS011;14791;52.392;13.092;2023-01-06T04:23:01;1.33;;;1.20;;
27303;SDS011;14791;52.392;13.092;2023-01-06T04:25:32;1.03;;;1.03;;
27303;SDS011;14791;52.392;13.092;2023-01-06T04:28:02;1.80;;;1.70;;
27303;SDS011;14791;52.392;13.092;2023-01-06T04:30:32;1.30;;;1.20;;
27303;SDS011;14791;52.392;13.092;2023-01-06T04:33:01;1.30;;;1.30;;
27303;SDS011;14791;52.392;13.092;2023-01-06T04:35:30;4.80;;;1.60;;
27303;SDS011;14791;52.392;13.092;2023-01-06T04:38:00;2.87;;;2.00;;
27303;SDS011;14791;52.392;13.092;2023-01-06T04:40:29;1.87;;;1.77;;
27303;SDS011;14791;52.392;13.092;2023-01-06T04:42:58;2.37;;;1.30;;
27303;SDS011;14791;52.392;13.092;2023-01-06T04:45:33;1.50;;;1.47;;
27303;SDS011;14791;52.392;13.092;2023-01-06T04:48:03;2.00;;;1.90;;
27303;SDS011;14791;52.392;13.092;2023-01-06T04:50:32;1.73;;;1.63;;
27303;SDS011;14791;52.392;13.092;2023-01-06T04:53:01;1.47;;;1.40;;
27303;SDS011;14791;52.392;13.092;2023-01-06T04:55:31;1.60;;;1.50;;
27303;SDS011;14791;52.392;13.092;2023-01-06T04:58:00;2.17;;;2.07;;
27303;SDS011;14791;52.392;13.092;2023-01-06T05:00:29;2.13;;;1.90;;
27303;SDS011;14791;52.392;13.092;2023-01-06T05:02:58;1.90;;;1.80;;
27303;SDS011;14791;52.392;13.092;2023-01-06T05:05:27;2.10;;;2.00;;
27303;SDS011;14791;52.392;13.092;2023-01-06T05:07:56;2.90;;;2.00;;
27303;SDS011;14791;52.392;13.092;2023-01-06T05:10:25;1.90;;;1.70;;
27303;SDS011;14791;52.392;13.092;2023-01-06T05:12:54;2.50;;;2.00;;
27303;SDS011;14791;52.392;13.092;2023-01-06T05:15:23;1.83;;;1.73;;
27303;SDS011;14791;52.392;13.092;2023-01-06T05:17:52;2.37;;;2.17;;
27303;SDS011;14791;52.392;13.092;2023-01-06T05:20:21;1.93;;;1.83;;
27303;SDS011;14791;52.392;13.092;2023-01-06T05:22:49;2.10;;;2.00;;
27303;SDS011;14791;52.392;13.092;2023-01-06T05:25:18;2.27;;;2.17;;
27303;SDS011;14791;52.392;13.092;2023-01-06T05:27:47;2.80;;;2.50;;
27303;SDS011;14791;52.392;13.092;2023-01-06T05:30:16;1.70;;;1.60;;
27303;SDS011;14791;52.392;13.092;2023-01-06T05:32:45;1.90;;;1.80;;
27303;SDS011;14791;52.392;13.092;2023-01-06T05:35:14;2.17;;;1.73;;
27303;SDS011;14791;52.392;13.092;2023-01-06T05:37:43;2.50;;;2.30;;
27303;SDS011;14791;52.392;13.092;2023-01-06T05:40:12;2.70;;;2.20;;
27303;SDS011;14791;52.392;13.092;2023-01-06T05:42:40;2.20;;;2.10;;
27303;SDS011;14791;52.392;13.092;2023-01-06T05:45:10;2.73;;;2.50;;
27303;SDS011;14791;52.392;13.092;2023-01-06T05:47:39;2.33;;;2.23;;
27303;SDS011;14791;52.392;13.092;2023-01-06T05:50:08;1.80;;;1.70;;
27303;SDS011;14791;52.392;13.092;2023-01-06T05:52:37;2.60;;;2.40;;
27303;SDS011;14791;52.392;13.092;2023-01-06T05:55:06;2.90;;;2.70;;
27303;SDS011;14791;52.392;13.092;2023-01-06T05:57:36;2.07;;;1.97;;
27303;SDS011;14791;52.392;13.092;2023-01-06T06:00:05;2.47;;;2.27;;
27303;SDS011;14791;52.392;13.092;2023-01-06T06:02:41;2.53;;;2.43;;
27303;SDS011;14791;52.392;13.092;2023-01-06T06:05:10;2.60;;;2.30;;
27303;SDS011;14791;52.392;13.092;2023-01-06T06:07:39;2.13;;;2.03;;
27303;SDS011;14791;52.392;13.092;2023-01-06T06:10:08;2.40;;;2.20;;
27303;SDS011;14791;52.392;13.092;2023-01-06T06:12:37;2.23;;;2.13;;
27303;SDS011;14791;52.392;13.092;2023-01-06T06:15:06;2.77;;;2.53;;
27303;SDS011;14791;52.392;13.092;2023-01-06T06:17:35;2.17;;;2.07;;
27303;SDS011;14791;52.392;13.092;2023-01-06T06:20:04;2.13;;;1.93;;
27303;SDS011;14791;52.392;13.092;2023-01-06T06:22:34;2.67;;;2.07;;
27303;SDS011;14791;52.392;13.092;2023-01-06T06:25:03;2.57;;;2.37;;
27303;SDS011;14791;52.392;13.092;2023-01-06T06:27:32;2.53;;;2.37;;
27303;SDS011;14791;52.392;13.092;2023-01-06T06:30:02;2.67;;;2.47;;
27303;SDS011;14791;52.392;13.092;2023-01-06T06:32:32;1.87;;;1.77;;
27303;SDS011;14791;52.392;13.092;2023-01-06T06:35:01;1.73;;;1.73;;
27303;SDS011;14791;52.392;13.092;2023-01-06T06:37:30;2.07;;;1.97;;
27303;SDS011;14791;52.392;13.092;2023-01-06T06:39:59;2.23;;;2.10;;
27303;SDS011;14791;52.392;13.092;2023-01-06T06:42:27;2.00;;;1.90;;
27303;SDS011;14791;52.392;13.092;2023-01-06T06:44:56;2.37;;;2.27;;
27303;SDS011;14791;52.392;13.092;2023-01-06T06:47:25;2.03;;;1.93;;
27303;SDS011;14791;52.392;13.092;2023-01-06T06:49:54;2.77;;;2.57;;
27303;SDS011;14791;52.392;13.092;2023-01-06T06:52:23;3.53;;;3.33;;
27303;SDS011;14791;52.392;13.092;2023-01-06T06:54:52;1.67;;;1.57;;
27303;SDS011;14791;52.392;13.092;2023-01-06T06:57:21;2.47;;;2.20;;
27303;SDS011;14791;52.392;13.092;2023-01-06T06:59:50;2.43;;;2.17;;
27303;SDS011;14791;52.392;13.092;2023-01-06T07:02:19;1.80;;;1.80;;
27303;SDS011;14791;52.392;13.092;2023-01-06T07:04:48;2.03;;;1.93;;
27303;SDS011;14791;52.392;13.092;2023-01-06T07:07:17;2.20;;;2.10;;
27303;SDS011;14791;52.392;13.092;2023-01-06T07:09:46;2.20;;;2.10;;
27303;SDS011;14791;52.392;13.092;2023-01-06T07:12:15;1.70;;;1.70;;
27303;SDS011;14791;52.392;13.092;2023-01-06T07:14:44;2.07;;;1.97;;
27303;SDS011;14791;52.392;13.092;2023-01-06T07:17:13;1.97;;;1.87;;
27303;SDS011;14791;52.392;13.092;2023-01-06T07:19:43;1.67;;;1.67;;
27303;SDS011;14791;52.392;13.092;2023-01-06T07:22:12;2.40;;;2.20;;
27303;SDS011;14791;52.392;13.092;2023-01-06T07:24:41;1.60;;;1.60;;
27303;SDS011;14791;52.392;13.092;2023-01-06T07:27:10;2.00;;;1.90;;
27303;SDS011;14791;52.392;13.092;2023-01-06T07:29:39;2.03;;;1.93;;
27303;SDS011;14791;52.392;13.092;2023-01-06T07:32:08;2.13;;;2.03;;
27303;SDS011;14791;52.392;13.092;2023-01-06T07:34:36;2.70;;;2.47;;
27303;SDS011;14791;52.392;13.092;2023-01-06T07:37:05;1.33;;;1.33;;
27303;SDS011;14791;52.392;13.092;2023-01-06T07:39:34;2.03;;;1.83;;
27303;SDS011;14791;52.392;13.092;2023-01-06T07:42:03;2.60;;;2.50;;
27303;SDS011;14791;52.392;13.092;2023-01-06T07:44:34;2.90;;;2.70;;
27303;SDS011;14791;52.392;13.092;2023-01-06T07:47:03;3.07;;;2.83;;
27303;SDS011;14791;52.392;13.092;2023-01-06T07:49:32;3.37;;;3.27;;
27303;SDS011;14791;52.392;13.092;2023-01-06T07:52:01;3.37;;;3.27;;
27303;SDS011;14791;52.392;13.092;2023-01-06T07:57:18;2.87;;;2.67;;
27303;SDS011;14791;52.392;13.092;2023-01-06T07:59:41;2.73;;;2.63;;
27303;SDS011;14791;52.392;13.092;2023-01-06T08:02:15;2.43;;;2.33;;
27303;SDS011;14791;52.392;13.092;2023-01-06T08:04:48;2.50;;;2.30;;
27303;SDS011;14791;52.392;13.092;2023-01-06T08:07:19;2.80;;;2.60;;
27303;SDS011;14791;52.392;13.092;2023-01-06T08:09:48;2.97;;;2.60;;
27303;SDS011;14791;52.392;13.092;2023-01-06T08:12:17;2.50;;;2.40;;
27303;SDS011;14791;52.392;13.092;2023-01-06T08:14:47;2.53;;;2.43;;
27303;SDS011;14791;52.392;13.092;2023-01-06T08:17:18;3.00;;;2.90;;
27303;SDS011;14791;52.392;13.092;2023-01-06T08:19:48;2.77;;;2.63;;
27303;SDS011;14791;52.392;13.092;2023-01-06T08:22:17;2.03;;;2.03;;
27303;SDS011;14791;52.392;13.092;2023-01-06T08:24:48;2.63;;;2.50;;
27303;SDS011;14791;52.392;13.092;2023-01-06T08:27:20;2.67;;;2.57;;
27303;SDS011;14791;52.392;13.092;2023-01-06T08:29:47;2.67;;;2.13;;
27303;SDS011;14791;52.392;13.092;2023-01-06T08:32:17;3.07;;;2.87;;
27303;SDS011;14791;52.392;13.092;2023-01-06T08:34:46;3.23;;;3.13;;
27303;SDS011;14791;52.392;13.092;2023-01-06T08:37:15;3.83;;;3.13;;
27303;SDS011;14791;52.392;13.092;2023-01-06T08:39:44;3.00;;;2.90;;
27303;SDS011;14791;52.392;13.092;2023-01-06T08:42:13;2.93;;;2.73;;
27303;SDS011;14791;52.392;13.092;2023-01-06T08:44:44;2.97;;;2.80;;
27303;SDS011;14791;52.392;13.092;2023-01-06T08:47:13;3.53;;;3.13;;
27303;SDS011;14791;52.392;13.092;2023-01-06T08:49:41;3.47;;;3.27;;
27303;SDS011;14791;52.392;13.092;2023-01-06T08:52:10;3.37;;;3.27;;
27303;SDS011;14791;52.392;13.092;2023-01-06T08:54:39;3.83;;;3.63;;
27303;SDS011;14791;52.392;13.092;2023-01-06T08:57:08;3.87;;;3.67;;
27303;SDS011;14791;52.392;13.092;2023-01-06T08:59:37;4.80;;;4.50;;
27303;SDS011;14791;52.392;13.092;2023-01-06T09:02:07;3.80;;;3.63;;
27303;SDS011;14791;52.392;13.092;2023-01-06T09:04:37;3.40;;;3.23;;
27303;SDS011;14791;52.392;13.092;2023-01-06T09:07:07;3.53;;;3.37;;
27303;SDS011;14791;52.392;13.092;2023-01-06T09:09:36;4.43;;;4.13;;
27303;SDS011;14791;52.392;13.092;2023-01-06T09:12:06;4.43;;;4.23;;
27303;SDS011;14791;52.392;13.092;2023-01-06T09:14:35;3.17;;;3.07;;
27303;SDS011;14791;52.392;13.092;2023-01-06T09:17:04;3.40;;;3.20;;
27303;SDS011;14791;52.392;13.092;2023-01-06T09:19:33;3.93;;;3.73;;
27303;SDS011;14791;52.392;13.092;2023-01-06T09:22:02;4.07;;;3.83;;
27303;SDS011;14791;52.392;13.092;2023-01-06T09:24:31;4.27;;;4.07;;
27303;SDS011;14791;52.392;13.092;2023-01-06T09:27:00;4.80;;;4.23;;
27303;SDS011;14791;52.392;13.092;2023-01-06T09:29:29;4.30;;;4.10;;
27303;SDS011;14791;52.392;13.092;2023-01-06T09:31:58;4.50;;;4.20;;
27303;SDS011;14791;52.392;13.092;2023-01-06T09:34:27;4.67;;;4.30;;
27303;SDS011;14791;52.392;13.092;2023-01-06T09:36:56;4.13;;;3.87;;
27303;SDS011;14791;52.392;13.092;2023-01-06T09:39:25;4.03;;;3.73;;
27303;SDS011;14791;52.392;13.092;2023-01-06T09:47:27;3.80;;;3.60;;
27303;SDS011;14791;52.392;13.092;2023-01-06T09:50:02;3.70;;;3.50;;
27303;SDS011;14791;52.392;13.092;2023-01-06T09:52:32;4.40;;;4.10;;
27303;SDS011;14791;52.392;13.092;2023-01-06T09:55:17;4.10;;;3.90;;
27303;SDS011;14791;52.392;13.092;2023-01-06T09:58:09;4.07;;;3.87;;
27303;SDS011;14791;52.392;13.092;2023-01-06T10:00:44;4.20;;;3.90;;
27303;SDS011;14791;52.392;13.092;2023-01-06T10:03:16;4.60;;;4.30;;
27303;SDS011;14791;52.392;13.092;2023-01-06T10:08:40;4.20;;;4.00;;
27303;SDS011;14791;52.392;13.092;2023-01-06T10:11:31;3.83;;;3.63;;
27303;SDS011;14791;52.392;13.092;2023-01-06T10:22:19;4.43;;;4.23;;
27303;SDS011;14791;52.392;13.092;2023-01-06T10:27:49;4.30;;;4.10;;
27303;SDS011;14791;52.392;13.092;2023-01-06T10:30:30;3.90;;;3.80;;
27303;SDS011;14791;52.392;13.092;2023-01-06T10:33:00;3.37;;;3.27;;
27303;SDS011;14791;52.392;13.092;2023-01-06T10:35:30;4.23;;;4.03;;
27303;SDS011;14791;52.392;13.092;2023-01-06T10:38:02;3.40;;;3.30;;
27303;SDS011;14791;52.392;13.092;2023-01-06T10:40:31;3.80;;;3.70;;
27303;SDS011;14791;52.392;13.092;2023-01-06T10:43:03;3.97;;;3.87;;
27303;SDS011;14791;52.392;13.092;2023-01-06T10:48:12;3.50;;;3.40;;
27303;SDS011;14791;52.392;13.092;2023-01-06T10:50:46;3.97;;;3.77;;
27303;SDS011;14791;52.392;13.092;2023-01-06T10:53:15;3.23;;;3.13;;
27303;SDS011;14791;52.392;13.092;2023-01-06T10:55:53;3.30;;;3.20;;
27303;SDS011;14791;52.392;13.092;2023-01-06T11:01:27;3.10;;;2.90;;
27303;SDS011;14791;52.392;13.092;2023-01-06T11:04:03;3.17;;;3.07;;
27303;SDS011;14791;52.392;13.092;2023-01-06T11:06:35;3.03;;;2.93;;
27303;SDS011;14791;52.392;13.092;2023-01-06T11:11:54;3.30;;;3.20;;
27303;SDS011;14791;52.392;13.092;2023-01-06T11:14:27;3.53;;;3.40;;
27303;SDS011;14791;52.392;13.092;2023-01-06T11:17:06;4.10;;;3.90;;
27303;SDS011;14791;52.392;13.092;2023-01-06T11:19:37;3.67;;;3.47;;
27303;SDS011;14791;52.392;13.092;2023-01-06T11:22:09;4.27;;;4.17;;
27303;SDS011;14791;52.392;13.092;2023-01-06T11:24:53;3.97;;;3.87;;
27303;SDS011;14791;52.392;13.092;2023-01-06T11:27:22;4.40;;;4.20;;
27303;SDS011;14791;52.392;13.092;2023-01-06T11:29:51;3.57;;;3.47;;
27303;SDS011;14791;52.392;13.092;2023-01-06T11:32:21;4.47;;;4.27;;
27303;SDS011;14791;52.392;13.092;2023-01-06T11:34:53;3.67;;;3.57;;
27303;SDS011;14791;52.392;13.092;2023-01-06T11:42:54;4.00;;;3.80;;
27303;SDS011;14791;52.392;13.092;2023-01-06T11:45:32;3.60;;;3.50;;
27303;SDS011;14791;52.392;13.092;2023-01-06T11:48:04;3.17;;;3.07;;
27303;SDS011;14791;52.392;13.092;2023-01-06T11:50:35;3.50;;;3.30;;
27303;SDS011;14791;52.392;13.092;2023-01-06T11:53:14;3.33;;;3.03;;
27303;SDS011;14791;52.392;13.092;2023-01-06T11:55:53;3.00;;;2.90;;
27303;SDS011;14791;52.392;13.092;2023-01-06T12:01:10;2.70;;;2.60;;
27303;SDS011;14791;52.392;13.092;2023-01-06T12:03:44;2.87;;;2.77;;
27303;SDS011;14791;52.392;13.092;2023-01-06T12:06:23;2.50;;;2.40;;
27303;SDS011;14791;52.392;13.092;2023-01-06T12:11:52;1.93;;;1.83;;
27303;SDS011;14791;52.392;13.092;2023-01-06T12:14:29;1.80;;;1.80;;
27303;SDS011;14791;52.392;13.092;2023-01-06T12:20:05;1.70;;;1.63;;
27303;SDS011;14791;52.392;13.092;2023-01-06T12:25:46;1.30;;;1.20;;
27303;SDS011;14791;52.392;13.092;2023-01-06T12:28:26;1.10;;;1.10;;
27303;SDS011;14791;52.392;13.092;2023-01-06T12:31:09;3.90;;;2.27;;
27303;SDS011;14791;52.392;13.092;2023-01-06T12:33:44;1.77;;;1.77;;
27303;SDS011;14791;52.392;13.092;2023-01-06T12:36:22;1.20;;;1.20;;
27303;SDS011;14791;52.392;13.092;2023-01-06T12:38:53;1.33;;;1.30;;
27303;SDS011;14791;52.392;13.092;2023-01-06T12:47:13;0.93;;;0.93;;
27303;SDS011;14791;52.392;13.092;2023-01-06T12:52:31;0.90;;;0.90;;
27303;SDS011;14791;52.392;13.092;2023-01-06T12:55:04;0.63;;;0.63;;
27303;SDS011;14791;52.392;13.092;2023-01-06T12:57:39;0.90;;;0.90;;
27303;SDS011;14791;52.392;13.092;2023-01-06T13:00:33;0.83;;;0.83;;
27303;SDS011;14791;52.392;13.092;2023-01-06T13:08:55;0.90;;;0.90;;
27303;SDS011;14791;52.392;13.092;2023-01-06T13:14:28;0.70;;;0.70;;
27303;SDS011;14791;52.392;13.092;2023-01-06T13:17:03;6.53;;;3.87;;
27303;SDS011;14791;52.392;13.092;2023-01-06T13:19:45;1.40;;;1.30;;
27303;SDS011;14791;52.392;13.092;2023-01-06T13:22:24;0.80;;;0.80;;
27303;SDS011;14791;52.392;13.092;2023-01-06T13:27:52;0.37;;;0.37;;
27303;SDS011;14791;52.392;13.092;2023-01-06T13:33:29;0.93;;;0.93;;
27303;SDS011;14791;52.392;13.092;2023-01-06T13:41:53;0.40;;;0.40;;
27303;SDS011;14791;52.392;13.092;2023-01-06T13:44:25;0.40;;;0.40;;
27303;SDS011;14791;52.392;13.092;2023-01-06T13:47:02;0.30;;;0.30;;
27303;SDS011;14791;52.392;13.092;2023-01-06T13:49:31;0.30;;;0.30;;
27303;SDS011;14791;52.392;13.092;2023-01-06T13:52:03;0.97;;;0.97;;
27303;SDS011;14791;52.392;13.092;2023-01-06T14:05:46;1.83;;;0.60;;
27303;SDS011;14791;52.392;13.092;2023-01-06T14:10:31;0.60;;;0.60;;
27303;SDS011;14791;52.392;13.092;2023-01-06T14:13:01;0.50;;;0.50;;
27303;SDS011;14791;52.392;13.092;2023-01-06T14:15:33;0.40;;;0.40;;
27303;SDS011;14791;52.392;13.092;2023-01-06T14:18:04;0.57;;;0.50;;
27303;SDS011;14791;52.392;13.092;2023-01-06T14:20:34;0.60;;;0.60;;
27303;SDS011;14791;52.392;13.092;2023-01-06T14:23:18;0.80;;;0.80;;
27303;SDS011;14791;52.392;13.092;2023-01-06T14:25:45;1.10;;;1.00;;
27303;SDS011;14791;52.392;13.092;2023-01-06T14:30:50;1.03;;;0.70;;
27303;SDS011;14791;52.392;13.092;2023-01-06T14:36:14;0.83;;;0.70;;
27303;SDS011;14791;52.392;13.092;2023-01-06T14:38:43;0.40;;;0.40;;
27303;SDS011;14791;52.392;13.092;2023-01-06T14:41:22;0.30;;;0.30;;
27303;SDS011;14791;52.392;13.092;2023-01-06T14:46:37;0.50;;;0.50;;
27303;SDS011;14791;52.392;13.092;2023-01-06T14:49:03;0.60;;;0.60;;
27303;SDS011;14791;52.392;13.092;2023-01-06T14:51:34;0.87;;;0.87;;
27303;SDS011;14791;52.392;13.092;2023-01-06T14:54:04;0.63;;;0.63;;
27303;SDS011;14791;52.392;13.092;2023-01-06T14:56:41;0.87;;;0.70;;
27303;SDS011;14791;52.392;13.092;2023-01-06T14:59:12;0.60;;;0.60;;
27303;SDS011;14791;52.392;13.092;2023-01-06T15:01:42;1.33;;;0.73;;
27303;SDS011;14791;52.392;13.092;2023-01-06T15:04:23;0.97;;;0.80;;
27303;SDS011;14791;52.392;13.092;2023-01-06T15:06:54;1.90;;;0.90;;
27303;SDS011;14791;52.392;13.092;2023-01-06T15:09:31;0.60;;;0.60;;
27303;SDS011;14791;52.392;13.092;2023-01-06T15:12:01;0.80;;;0.80;;
27303;SDS011;14791;52.392;13.092;2023-01-06T15:14:31;0.70;;;0.70;;
27303;SDS011;14791;52.392;13.092;2023-01-06T15:17:02;0.60;;;0.60;;
27303;SDS011;14791;52.392;13.092;2023-01-06T15:19:33;0.63;;;0.63;;
27303;SDS011;14791;52.392;13.092;2023-01-06T15:22:05;0.60;;;0.60;;
27303;SDS011;14791;52.392;13.092;2023-01-06T15:24:34;0.53;;;0.53;;
27303;SDS011;14791;52.392;13.092;2023-01-06T15:27:07;0.67;;;0.67;;
27303;SDS011;14791;52.392;13.092;2023-01-06T15:29:38;0.87;;;0.87;;
27303;SDS011;14791;52.392;13.092;2023-01-06T15:32:19;2.10;;;0.90;;
27303;SDS011;14791;52.392;13.092;2023-01-06T15:34:50;0.93;;;0.93;;
27303;SDS011;14791;52.392;13.092;2023-01-06T15:37:23;0.73;;;0.70;;
27303;SDS011;14791;52.392;13.092;2023-01-06T15:39:53;0.80;;;0.80;;
27303;SDS011;14791;52.392;13.092;2023-01-06T15:42:23;1.10;;;1.10;;
27303;SDS011;14791;52.392;13.092;2023-01-06T15:44:56;0.90;;;0.90;;
27303;SDS011;14791;52.392;13.092;2023-01-06T15:47:38;1.00;;;1.00;;
27303;SDS011;14791;52.392;13.092;2023-01-06T15:50:16;1.27;;;1.20;;
27303;SDS011;14791;52.392;13.092;2023-01-06T15:52:56;1.50;;;1.40;;
27303;SDS011;14791;52.392;13.092;2023-01-06T15:55:33;1.40;;;1.40;;
27303;SDS011;14791;52.392;13.092;2023-01-06T15:58:19;1.70;;;1.60;;
27303;SDS011;14791;52.392;13.092;2023-01-06T16:00:58;1.30;;;1.30;;
27303;SDS011;14791;52.392;13.092;2023-01-06T16:03:29;1.40;;;1.40;;
27303;SDS011;14791;52.392;13.092;2023-01-06T16:06:02;1.10;;;1.03;;
27303;SDS011;14791;52.392;13.092;2023-01-06T16:08:42;0.80;;;0.80;;
27303;SDS011;14791;52.392;13.092;2023-01-06T16:14:22;0.97;;;0.97;;
27303;SDS011;14791;52.392;13.092;2023-01-06T16:16:53;0.97;;;0.97;;
27303;SDS011;14791;52.392;13.092;2023-01-06T16:19:30;0.70;;;0.70;;
27303;SDS011;14791;52.392;13.092;2023-01-06T16:22:28;0.80;;;0.80;;
27303;SDS011;14791;52.392;13.092;2023-01-06T16:24:35;0.97;;;0.70;;
27303;SDS011;14791;52.392;13.092;2023-01-06T16:27:04;0.70;;;0.70;;
27303;SDS011;14791;52.392;13.092;2023-01-06T16:29:35;0.70;;;0.70;;
27303;SDS011;14791;52.392;13.092;2023-01-06T16:34:59;0.70;;;0.70;;
27303;SDS011;14791;52.392;13.092;2023-01-06T16:37:32;0.53;;;0.53;;
27303;SDS011;14791;52.392;13.092;2023-01-06T16:40:01;1.80;;;0.60;;
27303;SDS011;14791;52.392;13.092;2023-01-06T16:42:37;0.70;;;0.70;;
27303;SDS011;14791;52.392;13.092;2023-01-06T16:48:01;1.37;;;0.97;;
27303;SDS011;14791;52.392;13.092;2023-01-06T16:50:31;0.97;;;0.97;;
27303;SDS011;14791;52.392;13.092;2023-01-06T16:53:06;1.03;;;0.80;;
27303;SDS011;14791;52.392;13.092;2023-01-06T16:55:36;1.10;;;1.10;;
27303;SDS011;14791;52.392;13.092;2023-01-06T16:58:18;0.87;;;0.87;;
27303;SDS011;14791;52.392;13.092;2023-01-06T17:00:42;1.00;;;0.87;;
27303;SDS011;14791;52.392;13.092;2023-01-06T17:03:15;0.97;;;0.97;;
27303;SDS011;14791;52.392;13.092;2023-01-06T17:05:45;0.97;;;0.97;;
27303;SDS011;14791;52.392;13.092;2023-01-06T17:08:26;1.10;;;1.10;;
27303;SDS011;14791;52.392;13.092;2023-01-06T17:10:56;1.00;;;1.00;;
27303;SDS011;14791;52.392;13.092;2023-01-06T17:13:27;1.00;;;1.00;;
27303;SDS011;14791;52.392;13.092;2023-01-06T17:18:51;1.20;;;1.20;;
27303;SDS011;14791;52.392;13.092;2023-01-06T17:21:33;0.87;;;0.87;;
27303;SDS011;14791;52.392;13.092;2023-01-06T17:24:05;0.97;;;0.90;;